Startpagina
METAR-TAF:

METAR-TAF

Vliegvelden :

Julius Nyerere International Airport

Dar es Salaam, Tanzania

breedte: 06-52S, lengte: 039-12E, hoogte: 55 m

Actueel weer

Dit bericht is 1 uur en het 49 minuten geleden gemaakt, om 03:00 UTC
Wind 6 kt uit het westzuidwesten
Temperatuur 20°C
Vochtigheid 88%
Druk 1018 hPa
Zicht 10 km of meer
Onbewolkt

METAR: HTDA 130300Z 24006KT 9999 SKC 20/18 Q1018 NOSIG

Tijdstip: 07:49 (04:49 UTC)

Verwachting

Dit bericht is 5 uur en het 49 minuten geleden gemaakt, om 23:00 UTC
Verwachting geldig van 13 om 00 UTC tot 14 om 06 UTC
Wind 5 kt uit het westzuidwesten
Zicht 10 km of meer
Weinig wolken op 1300 ft
Wijzigt naar
van 13 om 07 UTC tot 13 om 10 UTC
Wind 15 kt uit het zuiden

TAF: HTDA 122300Z 1300/1406 24005KT 9999 FEW013 BECMG 1307/1310 19015KT

Waarnemingen en weersverwachtingen van meer dan 4000 vliegvelden (METAR en TAF).

De beschikbare stations zijn de gele en rode punten op de kaart.

Ga met uw muis naar het station om de naam te zien.

Klik dan om waarnemingen en weersverwachtingen te zien.

kaart wijzigen: klik op de groene knoppen met een zwart kruis om in te zoomen, op de groene knop met een streepje om uit te zoomen of op de groene pijlen voor aangrenzende kaarten.


METAR-TAF: